Cobb County-Mc Collum Field Atlanta US
ICAO: KRYY
IATA: RYY
Category: Medium
Scheduled Services: No

Elevation: 1040 ft
TransAlt. 18000 ft.

Airport Communications:
ATLANTA APP/DEP:121
AWOS 3:128.125
CTAF:125.9
GND:119
MC COLLUM TWR:125.9
UNICOM:122.7

KRYY Zoom In..

If you have problems with the map follow the link
https://www.worldairports.se/pages/airport.php?
ICAO=KRYY

Runways:

(A) RW 09 length 6311 ft width 100 ft
---- / hdg 93

(B) RW 27 length 6311 ft width 100 ft
ILS 111.90 / hdg 273

Location; KRYY
Day. 18 / Time. 05.48 Zulu
* Altimeter: 30.30
* Temperature: 13° c. 55.4°f.
* Wind from: 300° Speed 05 kn.
Dewpoint: 08° c.
Visibility: 10 Statute Miles.
Clouds: Clear (automated report).

KRYY 180548Z AUTO 30005KT 10SM CLR 13/08 A3030 RMK AO2 SLP980 T01330083 10167 20133 56002


Wind From 300°
Speed 05 kn.

 
 
jpsmedia.com for Web Design worldairports.se 2018   terms of use